Fayette, Ohio
Current Conditions -  °F | °C
As of 9:35 AM on Monday 26 Jan 2015 (Local Time) from KUSE Reporting Station
Clear Clear  
Wind Chill:   Ceiling: Unl
Heat Index: 12°   Visibility: 10mi
Dew Point:   Wind: 9mph
Humidity: 79%   Direction: 360°N
Pressure: 29.94"   Gusts: NA
Location:  41.67°N, 84.33°W
Report Text: KUSE 261435Z AUTO 36008KT 10SM CLR M11/M14 A2994 RMK AO2
Loading
Personal Weather Stations






























Interactive Weather Map New forecast layout! Learn more

10-Day Weather Forecast

Advertisements
Track Severe Weather on mobile